Carson Valley, Nevada Weather observations

Data are for 10 minute period ending at time listed.
 Day   Time   Solar   Ave.   Ave.  Ave.  Vector  Max.   Baro.   Total    
  of    of     Rad.   Air    Rel.  Wind   Wind   Wind  Press.  Precip.   
Year   Day            Temp.  Hum.  Speed  Dir.   Gust                    
2014   (PST)  Kw/m2    F      %     mph   deg.    mph    mb.     in.     
-------------------------------------------------------------------------
 264    3:50   0.00   56.0    60    2.0    72     3.4   857.8    0.00 
 264    4:00   0.00   56.2    60    2.6   128     3.3   857.7    0.00 
 264    4:10   0.00   55.4    65    3.8   243     6.7   857.8    0.00 
 264    4:20   0.00   55.1    65    3.0     6     5.6   857.8    0.00 
 264    4:30   0.00   56.2    61    2.5    17     3.7   857.9    0.00 
 264    4:40   0.00   56.7    59    0.8    27     1.8   857.9    0.00 
 264    4:50   0.00   55.3    63    2.4   323     3.2   858.0    0.00 
 264    5:00   0.00   54.6    66    2.7   289     3.4   858.1    0.00 
 264    5:10   0.00   53.2    70    2.9   307     3.7   858.2    0.00 
 264    5:20   0.00   53.2    70    3.2   319     3.9   858.2    0.00 
 264    5:30   0.00   53.0    71    3.0    26     3.9   858.2    0.00 
 264    5:40   0.00   53.1    71    3.4    23     4.5   858.2    0.00 
 264    5:50   0.01   52.4    73    2.1   312     2.8   858.3    0.00 
 264    6:00   0.03   53.2    72    2.3   352     2.8   858.3    0.00 
 264    6:10   0.06   54.6    67    1.6   328     2.8   858.3    0.00 
 264    6:20   0.10   56.1    67    1.0   278     2.6   858.4    0.00 
 264    6:30   0.13   59.1    61    0.7   296     2.0   858.6    0.00 
 264    6:40   0.10   59.7    60    1.8   304     2.3   858.7    0.00 
 264    6:50   0.05   58.9    64    1.5   300     1.9   858.9    0.00 
 264    7:00   0.04   58.8    64    0.5   319     1.8   859.0    0.00 
 264    7:10   0.04   58.6    64    1.2   336     1.8   859.0    0.00 
 264    7:20   0.04   58.3    65    0.4    46     1.4   859.1    0.00 
 264    7:30   0.06   58.7    65    0.9    75     1.8   859.2    0.00 
 264    7:40   0.08   59.1    64    0.8   353     1.8   859.2    0.00 
 264    7:50   0.10   60.0    64    0.1   348     0.7   859.3    0.00 
 264    8:00   0.12   60.6    59    1.4   322     3.5   859.3    0.00 
 264    8:10   0.13   60.0    65    2.9   261     4.2   859.3    0.00 
 264    8:20   0.13   60.6    58    1.5   228     2.9   859.3    0.00 
 264    8:30   0.16   61.6    54    1.6   188     2.7   859.4    0.00 
 264    8:40   0.16   62.3    54    2.3   178     3.1   859.4    0.00 
 264    8:50   0.18   62.5    53    2.3   163     3.4   859.4    0.00 
 264    9:00   0.18   63.1    52    2.3   196     3.8   859.5    0.00 
 264    9:10   0.19   63.4    51    2.0   205     2.9   859.5    0.00 
 264    9:20   0.20   63.8    51    1.1   234     2.6   859.6    0.00 
 264    9:30   0.23   63.9    52    1.7   261     2.9   859.7    0.00 
 264    9:40   0.25   64.2    49    2.1   276     3.6   859.6    0.00 
 264    9:50   0.27   64.7    49    2.8   340     4.2   859.6    0.00 
 264   10:00   0.31   65.3    48    3.3   351     5.8   859.5    0.00 
 264   10:10   0.35   66.0    46    2.9   325     5.0   859.5    0.00 
 264   10:20   0.31   66.3    44    2.3    29     5.2   859.5    0.00 
 264   10:30   0.26   66.9    43    1.6   349     4.2   859.4    0.00 
 264   10:40   0.26   66.5    44    2.1   264     4.2   859.4    0.00 
 264   10:50   0.28   66.6    44    2.2   250     3.5   859.4    0.00 
 264   11:00   0.28   66.5    43    2.7   249     4.5   859.4    0.00 
 264   11:10   0.24   66.9    43    1.6   237     2.6   859.4    0.00 
 264   11:20   0.21   67.1    43    2.4   220     4.3   859.4    0.00 
 264   11:30   0.19   66.7    43    2.5   242     3.7   859.3    0.00 
 264   11:40   0.18   66.7    43    2.8   196     4.0   859.3    0.00 
 264   11:50   0.17   66.6    41    2.1   184     3.9   859.1    0.00 
 264   12:00   0.14   66.8    42    1.0   221     2.8   859.1    0.00 
 264   12:10   0.12   66.5    44    2.9   205     4.2   859.2    0.00 
 264   12:20   0.11   66.1    47    2.2   231     3.9   859.0    0.00 
 264   12:30   0.07   65.7    49    1.3   247     2.6   859.0    0.00 
 264   12:40   0.08   65.8    49    2.2   243     5.4   858.9    0.00 
 264   12:50   0.07   66.2    47    6.0   233    18.0   858.8    0.00 
 264   13:00   0.07   66.5    44    9.9   253    16.7   858.8    0.00 
 264   13:10   0.06   66.1    46    7.0   206    12.6   859.0    0.00 
 264   13:20   0.04   65.9    44    7.0   202    13.1   859.0    0.00 
 264   13:30   0.03   65.1    46    3.3   135     5.1   859.0    0.00 
 264   13:40   0.03   64.9    47    4.5   124     7.3   858.9    0.00 
 264   13:50   0.04   64.8    48    5.8   114     8.2   858.8    0.00 
 264   14:00   0.05   65.3    47    4.9   128     7.3   858.8    0.00 
 264   14:10   0.07   65.4    48    4.5   106     6.2   858.7    0.00 
 264   14:20   0.07   65.6    50    4.3    75     6.9   858.7    0.00 
 264   14:30   0.12   65.6    50    4.8    88     6.9   858.7    0.00 
 264   14:40   0.13   66.2    49    3.3    63     6.4   858.7    0.00 
 264   14:50   0.14   66.5    46    5.0   116     8.0   858.7    0.00 
 264   15:00   0.13   66.1    49    5.7   121     7.9   858.6    0.00 
 264   15:10   0.09   65.8    50    4.0   122     6.1   858.6    0.00 
 264   15:20   0.21   66.3    51    4.0   118     5.8   858.6    0.00 
 264   15:30   0.12   66.5    50    4.7   109     8.7   858.6    0.00 
 264   15:40   0.06   65.8    51    3.5   101     7.6   858.6    0.00 
 264   15:50   0.12   66.3    49    4.3   111     7.5   858.6    0.00 
 264   16:00   0.13   66.8    48    4.8   110     7.2   858.6    0.00 
 264   16:10   0.15   67.3    48    4.4   123     7.2   858.6    0.00 
 264   16:20   0.16   67.6    47    5.0   110     7.2   858.6    0.00 
 264   16:30   0.12   68.0    46    4.9   118     6.9   858.6    0.00 
 264   16:40   0.10   67.9    45    3.6   114     5.3   858.6    0.00 
 264   16:50   0.09   68.0    44    4.1   108     5.6   858.6    0.00 
 264   17:00   0.08   68.0    44    3.0   116     4.8   858.6    0.00 
 264   17:10   0.06   68.1    41    3.0   206     7.5   858.6    0.00 
 264   17:20   0.05   66.7    48    2.2   309     5.0   858.6    0.00 
 264   17:30   0.04   66.5    46    2.7    50     6.0   858.6    0.00 
 264   17:40   0.02   66.3    46    2.3   119     4.7   858.5    0.00 
 264   17:50   0.02   65.6    46    3.6    64     5.2   858.5    0.00 
 264   18:00   0.01   64.3    48    5.4    70     6.9   858.5    0.00 
 264   18:10   0.00   63.4    50    4.2    61     5.6   858.6    0.00 
 264   18:20   0.00   63.4    47    4.3    70     8.3   858.6    0.00 
 264   18:30   0.00   63.5    47    4.8    79     7.5   858.7    0.00 
 264   18:40   0.00   63.5    46    3.8    23     6.8   858.8    0.00 
 264   18:50   0.00   66.7    35    3.5   286     9.6   858.8    0.00 
 264   19:00   0.00   64.1    42    2.6   337     4.5   858.9    0.00 
 264   19:10   0.00   61.4    48    2.0   152     3.7   858.9    0.00 
 264   19:20   0.00   60.1    50    1.4    93     2.9   859.0    0.00 
 264   19:30   0.00   58.5    54    2.9   311     5.0   858.9    0.00 
 264   19:40   0.00   56.7    59    4.3   291     8.2   858.9    0.00 
 264   19:50   0.00   57.4    55    3.9   202     9.1   858.9    0.00 
 264   20:00   0.00   54.4    63    3.3    84     5.5   859.0    0.00 
 264   20:10   0.00   56.6    57    3.2   118     4.7   859.0    0.00 
 264   20:20   0.00   55.5    59    4.5   115     6.4   859.0    0.00 
 264   20:30   0.00   54.2    61    2.5    20     4.5   859.0    0.00 
 264   20:40   0.00   53.2    62    3.7    78     6.0   859.0    0.00 
 264   20:50   0.00   52.7    66    2.1   257     7.1   859.1    0.00 
 264   21:00   0.00   53.4    63    3.6   194     5.6   859.0    0.00 
 264   21:10   0.00   54.9    58    1.9   198     6.1   858.9    0.00 
 264   21:20   0.00   50.2    68    2.5   138     4.7   859.0    0.00 
 264   21:30   0.00   50.4    68    2.0   195     4.4   858.9    0.00 
 264   21:40   0.00   52.8    62    3.1   108     6.1   858.9    0.00 
 264   21:50   0.00   51.4    64    4.8   148     7.2   858.9    0.00 
 264   22:00   0.00   50.8    64    4.9   152     6.1   859.0    0.00 
 264   22:10   0.00   48.7    69    4.6   174     6.3   859.0    0.00 
 264   22:20   0.00   49.3    69    4.7   144     5.9   859.0    0.00 
 264   22:30   0.00   50.2    66    3.9   162     5.8   859.0    0.00 
 264   22:40   0.00   49.7    67    1.2   232     2.8   859.1    0.00 
 264   22:50   0.00   48.2    68    2.3    98     4.4   859.1    0.00 
 264   23:00   0.00   45.6    74    2.9   163     5.4   859.2    0.00 
 264   23:10   0.00   44.1    81    3.1   160     4.7   859.1    0.00 
 264   23:20   0.00   44.2    83    2.8   160     4.3   859.1    0.00 
 264   23:30   0.00   43.1    83    2.9   237     6.0   859.2    0.00 
 264   23:40   0.00   43.0    85    2.0   314     3.4   859.2    0.00 
 264   23:50   0.00   42.0    84    1.6   211     2.5   859.2    0.00 
 265    0:00   0.00   42.6    86    0.7   260     2.0   859.2    0.00 
 265    0:10   0.00   42.8    84    0.7    92     2.6   859.2    0.00 
 265    0:20   0.00   41.0    85    0.5    20     2.7   859.3    0.00 
 265    0:30   0.00   42.7    87    0.9   118     1.8   859.3    0.00 
 265    0:40   0.00   42.1    83    1.2   100     2.3   859.3    0.00 
 265    0:50   0.00   41.9    83    1.1   285     4.0   859.4    0.00 
 265    1:00   0.00   41.2    88    1.9   334     3.9   859.5    0.00 
 265    1:10   0.00   41.4    87    2.1   266     4.0   859.5    0.00 
 265    1:20   0.00   43.2    86    0.9   308     3.4   859.5    0.00 
 265    1:30   0.00   43.9    82    0.4   353     1.5   859.5    0.00 
 265    1:40   0.00   43.9    79    1.7   121     3.7   859.4    0.00 
 265    1:50   0.00   41.1    83    3.2   173     5.3   859.4    0.00 
 265    2:00   0.00   39.8    87    1.8   221     3.9   859.4    0.00 
 265    2:10   0.00   40.0    89    1.6   164     3.1   859.4    0.00 
 265    2:20   0.00   40.3    89    2.7   152     4.0   859.4    0.00 
 265    2:30   0.00   39.9    89    1.4   159     2.8   859.4    0.00 
 265    2:40   0.00   39.0    89    1.0   111     2.4   859.4    0.00 
 265    2:50   0.00   39.3    91    2.9   112     3.7   859.4    0.00 
 265    3:00   0.00   39.8    91    2.5   149     4.7   859.3    0.00 
 265    3:10   0.00   38.5    90    3.6   234     5.1   859.5    0.00 
 265    3:20   0.00   39.0    92    1.6   210     4.4   859.5    0.00 
 265    3:30   0.00   38.4    91    1.7   176     3.5   859.5    0.00 
 265    3:40   0.00   37.9    91    1.2   204     3.1   859.4    0.00 

Return to Carson Valley graphs page.


Western Regional Climate Center,wrcc@dri.edu